sensor_id;sensor_type;location;lat;lon;timestamp;temperature;humidity
53314;DHT22;39202;51.468;7.146;2022-11-20T00:03:04;21.90;47.30
53314;DHT22;39202;51.468;7.146;2022-11-20T00:08:05;22.00;47.90
53314;DHT22;39202;51.468;7.146;2022-11-20T00:13:08;21.90;45.30
53314;DHT22;39202;51.468;7.146;2022-11-20T00:18:10;21.90;45.40
53314;DHT22;39202;51.468;7.146;2022-11-20T00:23:12;21.90;45.40
53314;DHT22;39202;51.468;7.146;2022-11-20T00:28:15;22.10;46.50
53314;DHT22;39202;51.468;7.146;2022-11-20T00:33:16;22.00;46.00
53314;DHT22;39202;51.468;7.146;2022-11-20T00:38:18;21.90;47.00
53314;DHT22;39202;51.468;7.146;2022-11-20T00:43:21;22.00;48.30
53314;DHT22;39202;51.468;7.146;2022-11-20T00:48:23;22.00;48.40
53314;DHT22;39202;51.468;7.146;2022-11-20T00:53:25;22.00;47.40
53314;DHT22;39202;51.468;7.146;2022-11-20T00:58:31;22.00;48.30
53314;DHT22;39202;51.468;7.146;2022-11-20T01:03:34;22.00;48.10
53314;DHT22;39202;51.468;7.146;2022-11-20T01:08:36;21.70;47.00
53314;DHT22;39202;51.468;7.146;2022-11-20T01:13:40;21.90;47.40
53314;DHT22;39202;51.468;7.146;2022-11-20T01:18:43;21.90;48.50
53314;DHT22;39202;51.468;7.146;2022-11-20T01:23:45;21.90;49.10
53314;DHT22;39202;51.468;7.146;2022-11-20T01:28:49;21.90;48.50
53314;DHT22;39202;51.468;7.146;2022-11-20T01:33:53;21.90;45.50
53314;DHT22;39202;51.468;7.146;2022-11-20T01:38:56;21.90;46.40
53314;DHT22;39202;51.468;7.146;2022-11-20T01:44:00;21.90;46.30
53314;DHT22;39202;51.468;7.146;2022-11-20T01:49:04;21.90;44.90
53314;DHT22;39202;51.468;7.146;2022-11-20T01:54:13;21.90;44.90
53314;DHT22;39202;51.468;7.146;2022-11-20T01:59:19;21.90;44.90
53314;DHT22;39202;51.468;7.146;2022-11-20T02:04:23;21.90;44.90
53314;DHT22;39202;51.468;7.146;2022-11-20T02:09:26;21.90;44.90
53314;DHT22;39202;51.468;7.146;2022-11-20T02:14:29;21.90;44.90
53314;DHT22;39202;51.468;7.146;2022-11-20T02:19:31;21.90;44.60
53314;DHT22;39202;51.468;7.146;2022-11-20T02:24:34;21.90;44.90
53314;DHT22;39202;51.468;7.146;2022-11-20T02:29:39;21.90;44.90
53314;DHT22;39202;51.468;7.146;2022-11-20T02:34:42;21.90;44.90
53314;DHT22;39202;51.468;7.146;2022-11-20T02:39:46;21.90;44.90
53314;DHT22;39202;51.468;7.146;2022-11-20T02:44:48;21.90;44.80
53314;DHT22;39202;51.468;7.146;2022-11-20T02:49:50;21.90;44.90
53314;DHT22;39202;51.468;7.146;2022-11-20T02:54:53;21.90;44.80
53314;DHT22;39202;51.468;7.146;2022-11-20T02:59:55;21.90;44.80
53314;DHT22;39202;51.468;7.146;2022-11-20T03:04:56;21.90;44.80
53314;DHT22;39202;51.468;7.146;2022-11-20T03:09:59;21.90;44.70
53314;DHT22;39202;51.468;7.146;2022-11-20T03:15:01;21.90;44.70
53314;DHT22;39202;51.468;7.146;2022-11-20T03:20:04;21.90;44.70
53314;DHT22;39202;51.468;7.146;2022-11-20T03:25:08;21.90;44.70
53314;DHT22;39202;51.468;7.146;2022-11-20T03:30:10;21.90;44.70
53314;DHT22;39202;51.468;7.146;2022-11-20T03:35:12;21.90;44.70
53314;DHT22;39202;51.468;7.146;2022-11-20T03:40:15;21.90;44.70
53314;DHT22;39202;51.468;7.146;2022-11-20T03:45:17;21.90;44.70
53314;DHT22;39202;51.468;7.146;2022-11-20T03:50:19;21.90;44.70
53314;DHT22;39202;51.468;7.146;2022-11-20T03:55:22;21.90;44.60
53314;DHT22;39202;51.468;7.146;2022-11-20T04:00:24;21.90;44.70
53314;DHT22;39202;51.468;7.146;2022-11-20T04:05:26;21.90;44.70
53314;DHT22;39202;51.468;7.146;2022-11-20T04:10:29;21.90;44.70
53314;DHT22;39202;51.468;7.146;2022-11-20T04:15:31;21.90;44.70
53314;DHT22;39202;51.468;7.146;2022-11-20T04:20:32;21.90;44.70
53314;DHT22;39202;51.468;7.146;2022-11-20T04:25:36;21.90;44.70
53314;DHT22;39202;51.468;7.146;2022-11-20T04:30:38;21.90;45.20
53314;DHT22;39202;51.468;7.146;2022-11-20T04:35:39;21.90;45.20
53314;DHT22;39202;51.468;7.146;2022-11-20T04:40:42;21.90;44.60
53314;DHT22;39202;51.468;7.146;2022-11-20T04:45:50;21.90;44.50
53314;DHT22;39202;51.468;7.146;2022-11-20T04:50:52;21.90;44.50
53314;DHT22;39202;51.468;7.146;2022-11-20T04:56:00;21.90;44.50
53314;DHT22;39202;51.468;7.146;2022-11-20T05:01:02;21.90;44.50
53314;DHT22;39202;51.468;7.146;2022-11-20T05:06:05;21.90;44.50
53314;DHT22;39202;51.468;7.146;2022-11-20T05:11:10;21.80;44.40
53314;DHT22;39202;51.468;7.146;2022-11-20T05:16:14;21.80;44.40
53314;DHT22;39202;51.468;7.146;2022-11-20T05:21:17;21.90;44.40
53314;DHT22;39202;51.468;7.146;2022-11-20T05:26:21;21.90;44.40
53314;DHT22;39202;51.468;7.146;2022-11-20T05:31:24;21.90;44.40
53314;DHT22;39202;51.468;7.146;2022-11-20T05:36:26;21.90;44.50
53314;DHT22;39202;51.468;7.146;2022-11-20T05:41:29;21.80;44.30
53314;DHT22;39202;51.468;7.146;2022-11-20T05:46:31;21.80;44.40
53314;DHT22;39202;51.468;7.146;2022-11-20T05:51:33;21.80;44.40
53314;DHT22;39202;51.468;7.146;2022-11-20T05:56:36;21.80;44.40
53314;DHT22;39202;51.468;7.146;2022-11-20T06:01:37;21.80;44.30
53314;DHT22;39202;51.468;7.146;2022-11-20T06:06:39;21.80;44.40
53314;DHT22;39202;51.468;7.146;2022-11-20T06:11:42;21.80;44.30
53314;DHT22;39202;51.468;7.146;2022-11-20T06:16:44;21.80;44.30
53314;DHT22;39202;51.468;7.146;2022-11-20T06:21:47;21.80;44.30
53314;DHT22;39202;51.468;7.146;2022-11-20T06:26:50;21.80;44.30
53314;DHT22;39202;51.468;7.146;2022-11-20T06:31:52;21.80;44.30
53314;DHT22;39202;51.468;7.146;2022-11-20T06:36:54;21.80;44.30
53314;DHT22;39202;51.468;7.146;2022-11-20T06:41:57;21.80;44.30
53314;DHT22;39202;51.468;7.146;2022-11-20T06:46:58;21.80;44.40
53314;DHT22;39202;51.468;7.146;2022-11-20T06:52:00;21.80;44.40
53314;DHT22;39202;51.468;7.146;2022-11-20T06:57:03;21.80;44.30
53314;DHT22;39202;51.468;7.146;2022-11-20T07:02:05;21.80;44.30
53314;DHT22;39202;51.468;7.146;2022-11-20T07:07:06;21.80;44.30
53314;DHT22;39202;51.468;7.146;2022-11-20T07:12:11;21.80;44.30
53314;DHT22;39202;51.468;7.146;2022-11-20T07:17:12;21.80;44.20
53314;DHT22;39202;51.468;7.146;2022-11-20T07:22:14;21.80;44.30
53314;DHT22;39202;51.468;7.146;2022-11-20T07:27:17;21.80;44.20
53314;DHT22;39202;51.468;7.146;2022-11-20T07:32:19;21.80;44.20
53314;DHT22;39202;51.468;7.146;2022-11-20T07:37:21;21.80;44.20
53314;DHT22;39202;51.468;7.146;2022-11-20T07:42:24;21.80;44.20
53314;DHT22;39202;51.468;7.146;2022-11-20T07:47:25;21.80;44.10
53314;DHT22;39202;51.468;7.146;2022-11-20T07:52:28;21.80;44.10
53314;DHT22;39202;51.468;7.146;2022-11-20T07:57:31;21.80;44.10
53314;DHT22;39202;51.468;7.146;2022-11-20T08:02:33;21.80;44.10
53314;DHT22;39202;51.468;7.146;2022-11-20T08:07:36;21.90;44.10
53314;DHT22;39202;51.468;7.146;2022-11-20T08:12:45;21.90;44.10
53314;DHT22;39202;51.468;7.146;2022-11-20T08:18:05;21.90;44.10
53314;DHT22;39202;51.468;7.146;2022-11-20T08:23:07;21.60;44.00
53314;DHT22;39202;51.468;7.146;2022-11-20T08:28:10;21.90;44.10
53314;DHT22;39202;51.468;7.146;2022-11-20T08:33:12;21.90;44.10
53314;DHT22;39202;51.468;7.146;2022-11-20T08:38:14;21.90;44.10
53314;DHT22;39202;51.468;7.146;2022-11-20T08:43:17;21.90;44.10
53314;DHT22;39202;51.468;7.146;2022-11-20T08:48:19;21.90;44.10
53314;DHT22;39202;51.468;7.146;2022-11-20T08:53:20;21.90;44.20
53314;DHT22;39202;51.468;7.146;2022-11-20T08:58:24;21.90;44.10
53314;DHT22;39202;51.468;7.146;2022-11-20T09:03:25;22.00;44.10
53314;DHT22;39202;51.468;7.146;2022-11-20T09:08:28;22.00;44.10
53314;DHT22;39202;51.468;7.146;2022-11-20T09:13:33;22.10;44.00
53314;DHT22;39202;51.468;7.146;2022-11-20T09:18:36;22.10;44.00
53314;DHT22;39202;51.468;7.146;2022-11-20T09:23:39;22.10;43.90
53314;DHT22;39202;51.468;7.146;2022-11-20T09:28:42;22.10;43.90
53314;DHT22;39202;51.468;7.146;2022-11-20T09:33:44;22.10;43.80
53314;DHT22;39202;51.468;7.146;2022-11-20T09:38:46;22.10;43.80
53314;DHT22;39202;51.468;7.146;2022-11-20T09:43:54;22.10;43.80
53314;DHT22;39202;51.468;7.146;2022-11-20T09:49:14;22.10;44.30
53314;DHT22;39202;51.468;7.146;2022-11-20T09:54:19;22.10;43.90
53314;DHT22;39202;51.468;7.146;2022-11-20T09:59:33;22.10;43.70
53314;DHT22;39202;51.468;7.146;2022-11-20T10:04:36;22.10;43.70
53314;DHT22;39202;51.468;7.146;2022-11-20T10:09:49;22.10;43.80
53314;DHT22;39202;51.468;7.146;2022-11-20T10:15:06;22.00;43.70
53314;DHT22;39202;51.468;7.146;2022-11-20T10:20:16;22.00;43.70
53314;DHT22;39202;51.468;7.146;2022-11-20T10:25:23;22.00;43.80
53314;DHT22;39202;51.468;7.146;2022-11-20T10:30:27;22.00;43.90
53314;DHT22;39202;51.468;7.146;2022-11-20T10:35:35;22.10;44.10
53314;DHT22;39202;51.468;7.146;2022-11-20T10:40:42;22.10;44.10
53314;DHT22;39202;51.468;7.146;2022-11-20T10:45:50;22.20;44.10
53314;DHT22;39202;51.468;7.146;2022-11-20T10:51:02;22.30;44.10
53314;DHT22;39202;51.468;7.146;2022-11-20T10:56:09;22.40;44.00
53314;DHT22;39202;51.468;7.146;2022-11-20T11:01:17;22.40;43.90
53314;DHT22;39202;51.468;7.146;2022-11-20T11:06:25;22.50;43.80
53314;DHT22;39202;51.468;7.146;2022-11-20T11:11:31;22.50;43.80
53314;DHT22;39202;51.468;7.146;2022-11-20T11:16:35;22.50;43.70
53314;DHT22;39202;51.468;7.146;2022-11-20T11:21:37;22.50;43.70
53314;DHT22;39202;51.468;7.146;2022-11-20T11:26:51;22.50;43.70
53314;DHT22;39202;51.468;7.146;2022-11-20T11:32:05;22.50;43.70
53314;DHT22;39202;51.468;7.146;2022-11-20T11:37:14;22.50;43.40
53314;DHT22;39202;51.468;7.146;2022-11-20T11:42:19;22.50;43.60
53314;DHT22;39202;51.468;7.146;2022-11-20T11:47:25;22.50;43.70
53314;DHT22;39202;51.468;7.146;2022-11-20T11:52:29;22.40;43.60
53314;DHT22;39202;51.468;7.146;2022-11-20T11:57:39;22.40;43.50
53314;DHT22;39202;51.468;7.146;2022-11-20T12:02:53;22.40;43.50
53314;DHT22;39202;51.468;7.146;2022-11-20T12:07:59;22.40;44.20
53314;DHT22;39202;51.468;7.146;2022-11-20T12:13:05;22.40;43.50
53314;DHT22;39202;51.468;7.146;2022-11-20T12:18:15;22.40;43.50
53314;DHT22;39202;51.468;7.146;2022-11-20T12:23:22;22.40;43.60
53314;DHT22;39202;51.468;7.146;2022-11-20T12:28:38;22.40;43.50
53314;DHT22;39202;51.468;7.146;2022-11-20T12:33:59;22.30;43.50
53314;DHT22;39202;51.468;7.146;2022-11-20T12:39:12;22.30;43.50
53314;DHT22;39202;51.468;7.146;2022-11-20T12:44:31;22.30;43.50
53314;DHT22;39202;51.468;7.146;2022-11-20T12:49:59;22.30;43.50
53314;DHT22;39202;51.468;7.146;2022-11-20T12:55:25;22.30;43.50
53314;DHT22;39202;51.468;7.146;2022-11-20T13:00:31;22.30;43.50
53314;DHT22;39202;51.468;7.146;2022-11-20T13:05:43;22.30;43.60
53314;DHT22;39202;51.468;7.146;2022-11-20T13:10:50;22.30;43.60
53314;DHT22;39202;51.468;7.146;2022-11-20T13:15:57;22.30;43.60
53314;DHT22;39202;51.468;7.146;2022-11-20T13:21:14;22.30;43.60
53314;DHT22;39202;51.468;7.146;2022-11-20T13:26:19;22.20;43.50
53314;DHT22;39202;51.468;7.146;2022-11-20T13:31:28;22.30;43.60
53314;DHT22;39202;51.468;7.146;2022-11-20T13:36:32;22.30;43.60
53314;DHT22;39202;51.468;7.146;2022-11-20T13:41:37;22.30;43.60
53314;DHT22;39202;51.468;7.146;2022-11-20T13:46:42;22.30;43.60
53314;DHT22;39202;51.468;7.146;2022-11-20T13:51:47;22.30;43.60
53314;DHT22;39202;51.468;7.146;2022-11-20T13:57:01;22.30;43.50
53314;DHT22;39202;51.468;7.146;2022-11-20T14:02:10;22.30;43.50
53314;DHT22;39202;51.468;7.146;2022-11-20T14:07:14;22.30;43.50
53314;DHT22;39202;51.468;7.146;2022-11-20T14:12:19;22.30;43.50
53314;DHT22;39202;51.468;7.146;2022-11-20T14:17:22;22.30;43.50
53314;DHT22;39202;51.468;7.146;2022-11-20T14:22:27;22.30;43.50
53314;DHT22;39202;51.468;7.146;2022-11-20T14:27:29;22.30;43.50
53314;DHT22;39202;51.468;7.146;2022-11-20T14:32:35;22.30;43.50
53314;DHT22;39202;51.468;7.146;2022-11-20T14:37:39;22.30;43.50
53314;DHT22;39202;51.468;7.146;2022-11-20T14:42:43;22.30;43.40
53314;DHT22;39202;51.468;7.146;2022-11-20T14:47:46;22.30;43.50
53314;DHT22;39202;51.468;7.146;2022-11-20T14:52:54;22.20;43.40
53314;DHT22;39202;51.468;7.146;2022-11-20T14:57:57;22.20;43.40
53314;DHT22;39202;51.468;7.146;2022-11-20T15:02:59;22.20;43.40
53314;DHT22;39202;51.468;7.146;2022-11-20T15:08:08;22.20;43.40
53314;DHT22;39202;51.468;7.146;2022-11-20T15:13:12;22.20;43.40
53314;DHT22;39202;51.468;7.146;2022-11-20T15:18:16;22.20;43.40
53314;DHT22;39202;51.468;7.146;2022-11-20T15:23:20;22.20;43.40
53314;DHT22;39202;51.468;7.146;2022-11-20T15:28:29;22.20;43.50
53314;DHT22;39202;51.468;7.146;2022-11-20T15:33:32;22.20;43.50
53314;DHT22;39202;51.468;7.146;2022-11-20T15:38:36;22.20;43.50
53314;DHT22;39202;51.468;7.146;2022-11-20T15:43:37;22.20;43.50
53314;DHT22;39202;51.468;7.146;2022-11-20T15:48:42;22.20;43.50
53314;DHT22;39202;51.468;7.146;2022-11-20T15:53:46;22.20;43.50
53314;DHT22;39202;51.468;7.146;2022-11-20T15:58:48;22.30;43.50
53314;DHT22;39202;51.468;7.146;2022-11-20T16:03:50;22.30;43.50
53314;DHT22;39202;51.468;7.146;2022-11-20T16:08:53;22.30;43.50
53314;DHT22;39202;51.468;7.146;2022-11-20T16:13:54;22.30;43.40
53314;DHT22;39202;51.468;7.146;2022-11-20T16:19:14;22.30;43.40
53314;DHT22;39202;51.468;7.146;2022-11-20T16:24:18;22.30;43.40
53314;DHT22;39202;51.468;7.146;2022-11-20T16:29:19;22.30;43.30
53314;DHT22;39202;51.468;7.146;2022-11-20T16:34:21;22.30;43.30
53314;DHT22;39202;51.468;7.146;2022-11-20T16:39:25;22.30;43.30
53314;DHT22;39202;51.468;7.146;2022-11-20T16:44:26;22.20;43.30
53314;DHT22;39202;51.468;7.146;2022-11-20T16:49:28;22.20;43.30
53314;DHT22;39202;51.468;7.146;2022-11-20T16:54:31;22.20;43.30
53314;DHT22;39202;51.468;7.146;2022-11-20T16:59:33;22.20;43.20
53314;DHT22;39202;51.468;7.146;2022-11-20T17:04:34;22.20;43.30
53314;DHT22;39202;51.468;7.146;2022-11-20T17:09:37;22.20;43.30
53314;DHT22;39202;51.468;7.146;2022-11-20T17:14:39;22.20;43.30
53314;DHT22;39202;51.468;7.146;2022-11-20T17:19:41;22.20;43.20
53314;DHT22;39202;51.468;7.146;2022-11-20T17:24:44;22.20;43.30
53314;DHT22;39202;51.468;7.146;2022-11-20T17:29:46;22.20;43.30
53314;DHT22;39202;51.468;7.146;2022-11-20T17:34:47;22.20;43.30
53314;DHT22;39202;51.468;7.146;2022-11-20T17:39:50;22.20;43.30
53314;DHT22;39202;51.468;7.146;2022-11-20T17:44:52;22.20;43.30
53314;DHT22;39202;51.468;7.146;2022-11-20T17:49:54;22.20;43.30
53314;DHT22;39202;51.468;7.146;2022-11-20T17:54:57;22.20;43.30
53314;DHT22;39202;51.468;7.146;2022-11-20T17:59:58;22.20;43.30
53314;DHT22;39202;51.468;7.146;2022-11-20T18:05:00;22.30;43.40
53314;DHT22;39202;51.468;7.146;2022-11-20T18:10:04;22.30;43.30
53314;DHT22;39202;51.468;7.146;2022-11-20T18:15:06;22.30;43.30
53314;DHT22;39202;51.468;7.146;2022-11-20T18:20:09;22.30;43.20
53314;DHT22;39202;51.468;7.146;2022-11-20T18:25:12;22.30;43.20
53314;DHT22;39202;51.468;7.146;2022-11-20T18:30:14;22.30;43.20
53314;DHT22;39202;51.468;7.146;2022-11-20T18:35:16;22.30;43.20
53314;DHT22;39202;51.468;7.146;2022-11-20T18:40:19;22.30;43.20
53314;DHT22;39202;51.468;7.146;2022-11-20T18:45:21;22.20;43.10
53314;DHT22;39202;51.468;7.146;2022-11-20T18:50:22;22.20;43.10
53314;DHT22;39202;51.468;7.146;2022-11-20T18:55:25;22.20;43.10
53314;DHT22;39202;51.468;7.146;2022-11-20T19:00:27;22.20;43.10
53314;DHT22;39202;51.468;7.146;2022-11-20T19:05:29;22.20;43.10
53314;DHT22;39202;51.468;7.146;2022-11-20T19:10:32;22.20;43.10
53314;DHT22;39202;51.468;7.146;2022-11-20T19:15:33;22.20;43.20
53314;DHT22;39202;51.468;7.146;2022-11-20T19:20:37;22.20;43.20
53314;DHT22;39202;51.468;7.146;2022-11-20T19:25:40;22.20;43.20
53314;DHT22;39202;51.468;7.146;2022-11-20T19:30:41;22.20;43.30
53314;DHT22;39202;51.468;7.146;2022-11-20T19:35:43;22.20;43.30
53314;DHT22;39202;51.468;7.146;2022-11-20T19:40:46;22.20;43.30
53314;DHT22;39202;51.468;7.146;2022-11-20T19:45:48;22.20;43.20
53314;DHT22;39202;51.468;7.146;2022-11-20T19:50:49;22.20;43.20
53314;DHT22;39202;51.468;7.146;2022-11-20T19:55:56;22.20;43.20
53314;DHT22;39202;51.468;7.146;2022-11-20T20:01:05;22.30;43.20
53314;DHT22;39202;51.468;7.146;2022-11-20T20:06:08;22.20;43.10
53314;DHT22;39202;51.468;7.146;2022-11-20T20:11:13;22.20;43.10
53314;DHT22;39202;51.468;7.146;2022-11-20T20:16:18;22.20;43.10
53314;DHT22;39202;51.468;7.146;2022-11-20T20:21:20;22.20;43.10
53314;DHT22;39202;51.468;7.146;2022-11-20T20:26:25;22.20;43.10
53314;DHT22;39202;51.468;7.146;2022-11-20T20:31:29;22.30;43.20
53314;DHT22;39202;51.468;7.146;2022-11-20T20:36:30;22.20;43.10
53314;DHT22;39202;51.468;7.146;2022-11-20T20:41:34;22.20;43.10
53314;DHT22;39202;51.468;7.146;2022-11-20T20:46:35;22.20;43.10
53314;DHT22;39202;51.468;7.146;2022-11-20T20:51:37;22.20;43.10
53314;DHT22;39202;51.468;7.146;2022-11-20T20:56:40;22.20;43.10
53314;DHT22;39202;51.468;7.146;2022-11-20T21:01:42;22.20;43.10
53314;DHT22;39202;51.468;7.146;2022-11-20T21:06:44;22.20;43.10
53314;DHT22;39202;51.468;7.146;2022-11-20T21:11:47;22.20;43.10
53314;DHT22;39202;51.468;7.146;2022-11-20T21:16:50;22.20;43.10
53314;DHT22;39202;51.468;7.146;2022-11-20T21:21:51;22.20;43.10
53314;DHT22;39202;51.468;7.146;2022-11-20T21:27:01;22.30;43.20
53314;DHT22;39202;51.468;7.146;2022-11-20T21:32:03;22.20;43.10
53314;DHT22;39202;51.468;7.146;2022-11-20T21:37:05;22.20;43.10
53314;DHT22;39202;51.468;7.146;2022-11-20T21:42:08;22.20;43.10
53314;DHT22;39202;51.468;7.146;2022-11-20T21:47:11;22.20;43.10
53314;DHT22;39202;51.468;7.146;2022-11-20T21:52:12;22.20;43.10
53314;DHT22;39202;51.468;7.146;2022-11-20T21:57:15;22.20;43.10
53314;DHT22;39202;51.468;7.146;2022-11-20T22:02:17;22.20;43.10
53314;DHT22;39202;51.468;7.146;2022-11-20T22:07:19;22.20;43.10
53314;DHT22;39202;51.468;7.146;2022-11-20T22:12:22;22.20;43.10
53314;DHT22;39202;51.468;7.146;2022-11-20T22:17:23;22.20;43.00
53314;DHT22;39202;51.468;7.146;2022-11-20T22:22:39;22.20;43.10
53314;DHT22;39202;51.468;7.146;2022-11-20T22:27:44;22.20;43.10
53314;DHT22;39202;51.468;7.146;2022-11-20T22:32:46;22.20;43.10
53314;DHT22;39202;51.468;7.146;2022-11-20T22:37:48;22.20;43.20
53314;DHT22;39202;51.468;7.146;2022-11-20T22:42:51;22.20;43.20
53314;DHT22;39202;51.468;7.146;2022-11-20T22:47:53;22.20;43.10
53314;DHT22;39202;51.468;7.146;2022-11-20T22:52:54;22.30;43.20
53314;DHT22;39202;51.468;7.146;2022-11-20T22:57:57;22.30;43.10
53314;DHT22;39202;51.468;7.146;2022-11-20T23:02:59;22.30;43.10
53314;DHT22;39202;51.468;7.146;2022-11-20T23:08:01;22.30;43.00
53314;DHT22;39202;51.468;7.146;2022-11-20T23:13:04;22.30;43.00
53314;DHT22;39202;51.468;7.146;2022-11-20T23:18:06;22.30;43.00
53314;DHT22;39202;51.468;7.146;2022-11-20T23:23:08;22.30;43.00
53314;DHT22;39202;51.468;7.146;2022-11-20T23:28:11;22.30;43.00
53314;DHT22;39202;51.468;7.146;2022-11-20T23:33:12;22.30;42.90
53314;DHT22;39202;51.468;7.146;2022-11-20T23:38:14;22.30;43.00
53314;DHT22;39202;51.468;7.146;2022-11-20T23:43:19;22.20;42.90
53314;DHT22;39202;51.468;7.146;2022-11-20T23:48:22;22.20;43.00
53314;DHT22;39202;51.468;7.146;2022-11-20T23:53:24;22.20;43.00
53314;DHT22;39202;51.468;7.146;2022-11-20T23:58:32;22.20;43.00
